Terminal Aerodrome Forecast
Issued by NWS Albany, NY

Home | Current Version | Previous Version | Text Only | Print | Product List | Glossary On
Versions: 1 2 3 4 5 6 7 8 9 10 11 12 13 14 15
598
FTUS41 KALY 241738 AAA
TAFPOU
TAF AMD
KPOU 241738Z 2418/2518 20008KT P6SM VCSH BKN035 OVC045
     FM250200 21004KT P6SM BKN050 BKN070 WS020/24035KT
     FM250500 VRB04KT P6SM VCSH BKN040 PROB30 2512/2518 4SM -RA
      OVC015=

USA.gov is the U.S. government's official web portal to all federal, state and local government web resources and services.